sensor_id;sensor_type;location;lat;lon;timestamp;pressure;altitude;pressure_sealevel;temperature;humidity
7170;BME280;3626;42.656;23.312;2023-01-31T00:00:00;94039.75;;;-0.58;78.22
7170;BME280;3626;42.656;23.312;2023-01-31T00:00:07;94042.28;;;-0.58;78.02
7170;BME280;3626;42.656;23.312;2023-01-31T00:00:15;94042.28;;;-0.58;78.10
7170;BME280;3626;42.656;23.312;2023-01-31T00:00:22;94039.84;;;-0.60;78.03
7170;BME280;3626;42.656;23.312;2023-01-31T00:00:27;94037.31;;;-0.60;78.04
7170;BME280;3626;42.656;23.312;2023-01-31T00:00:33;94048.28;;;-0.59;78.40
7170;BME280;3626;42.656;23.312;2023-01-31T00:00:39;94044.81;;;-0.58;78.12
7170;BME280;3626;42.656;23.312;2023-01-31T00:00:45;94045.63;;;-0.58;78.38
7170;BME280;3626;42.656;23.312;2023-01-31T00:00:51;94045.63;;;-0.58;78.23
7170;BME280;3626;42.656;23.312;2023-01-31T00:01:04;94048.84;;;-0.56;78.08
7170;BME280;3626;42.656;23.312;2023-01-31T00:01:14;94047.22;;;-0.57;78.04
7170;BME280;3626;42.656;23.312;2023-01-31T00:01:22;94048.84;;;-0.56;78.03
7170;BME280;3626;42.656;23.312;2023-01-31T00:01:32;94039.63;;;-0.57;77.92
7170;BME280;3626;42.656;23.312;2023-01-31T00:01:39;94043.09;;;-0.58;77.88
7170;BME280;3626;42.656;23.312;2023-01-31T00:01:45;94040.69;;;-0.59;77.91
7170;BME280;3626;42.656;23.312;2023-01-31T00:01:51;94045.03;;;-0.61;77.75
7170;BME280;3626;42.656;23.312;2023-01-31T00:01:57;94046.63;;;-0.60;78.18
7170;BME280;3626;42.656;23.312;2023-01-31T00:02:03;94040.78;;;-0.61;78.02
7170;BME280;3626;42.656;23.312;2023-01-31T00:02:09;94040.09;;;-0.63;77.94
7170;BME280;3626;42.656;23.312;2023-01-31T00:02:15;94041.91;;;-0.65;78.10
7170;BME280;3626;42.656;23.312;2023-01-31T00:02:21;94045.38;;;-0.66;78.25
7170;BME280;3626;42.656;23.312;2023-01-31T00:02:26;94052.16;;;-0.66;78.13
7170;BME280;3626;42.656;23.312;2023-01-31T00:02:33;94041.91;;;-0.65;78.14
7170;BME280;3626;42.656;23.312;2023-01-31T00:02:39;94046.97;;;-0.65;78.22
7170;BME280;3626;42.656;23.312;2023-01-31T00:02:45;94045.16;;;-0.63;78.33
7170;BME280;3626;42.656;23.312;2023-01-31T00:02:51;94052.75;;;-0.63;78.60
7170;BME280;3626;42.656;23.312;2023-01-31T00:02:58;94048.50;;;-0.62;78.53
7170;BME280;3626;42.656;23.312;2023-01-31T00:03:04;94046.75;;;-0.62;78.22
7170;BME280;3626;42.656;23.312;2023-01-31T00:03:10;94044.22;;;-0.62;78.44
7170;BME280;3626;42.656;23.312;2023-01-31T00:03:16;94047.69;;;-0.63;78.57
7170;BME280;3626;42.656;23.312;2023-01-31T00:03:22;94051.84;;;-0.62;78.67
7170;BME280;3626;42.656;23.312;2023-01-31T00:03:28;94053.44;;;-0.61;78.12
7170;BME280;3626;42.656;23.312;2023-01-31T00:03:34;94050.91;;;-0.61;78.43
7170;BME280;3626;42.656;23.312;2023-01-31T00:03:40;94051.63;;;-0.59;78.64
7170;BME280;3626;42.656;23.312;2023-01-31T00:03:51;94051.50;;;-0.57;78.60
7170;BME280;3626;42.656;23.312;2023-01-31T00:04:00;94056.44;;;-0.56;78.27
7170;BME280;3626;42.656;23.312;2023-01-31T00:04:08;94053.91;;;-0.56;78.82
7170;BME280;3626;42.656;23.312;2023-01-31T00:04:15;94047.22;;;-0.57;78.44
7170;BME280;3626;42.656;23.312;2023-01-31T00:04:21;94056.44;;;-0.56;78.31
7170;BME280;3626;42.656;23.312;2023-01-31T00:04:27;94058.16;;;-0.56;78.21
7170;BME280;3626;42.656;23.312;2023-01-31T00:04:33;94059.09;;;-0.57;78.59
7170;BME280;3626;42.656;23.312;2023-01-31T00:04:39;94059.09;;;-0.57;78.41
7170;BME280;3626;42.656;23.312;2023-01-31T00:04:45;94060.81;;;-0.58;78.20
7170;BME280;3626;42.656;23.312;2023-01-31T00:04:51;94050.69;;;-0.58;78.59
7170;BME280;3626;42.656;23.312;2023-01-31T00:04:57;94063.34;;;-0.58;78.13
7170;BME280;3626;42.656;23.312;2023-01-31T00:05:03;94056.69;;;-0.59;78.48
7170;BME280;3626;42.656;23.312;2023-01-31T00:05:09;94066.91;;;-0.60;78.59
7170;BME280;3626;42.656;23.312;2023-01-31T00:05:15;94056.09;;;-0.62;78.71
7170;BME280;3626;42.656;23.312;2023-01-31T00:05:21;94061.16;;;-0.62;78.57
7170;BME280;3626;42.656;23.312;2023-01-31T00:05:27;94057.03;;;-0.63;78.67
7170;BME280;3626;42.656;23.312;2023-01-31T00:05:34;94060.44;;;-0.64;78.73
7170;BME280;3626;42.656;23.312;2023-01-31T00:05:40;94060.44;;;-0.64;78.49
7170;BME280;3626;42.656;23.312;2023-01-31T00:05:46;94063.91;;;-0.65;78.52
7170;BME280;3626;42.656;23.312;2023-01-31T00:05:52;94071.63;;;-0.67;78.83
7170;BME280;3626;42.656;23.312;2023-01-31T00:05:58;94064.03;;;-0.67;78.64
7170;BME280;3626;42.656;23.312;2023-01-31T00:06:16;94068.41;;;-0.69;79.03
7170;BME280;3626;42.656;23.312;2023-01-31T00:06:23;94065.97;;;-0.70;79.03
7170;BME280;3626;42.656;23.312;2023-01-31T00:06:32;94063.56;;;-0.72;78.91
7170;BME280;3626;42.656;23.312;2023-01-31T00:06:40;94070.47;;;-0.74;79.12
7170;BME280;3626;42.656;23.312;2023-01-31T00:06:55;94062.88;;;-0.74;78.95
7170;BME280;3626;42.656;23.312;2023-01-31T00:07:01;94065.41;;;-0.74;79.20
7170;BME280;3626;42.656;23.312;2023-01-31T00:07:07;94072.06;;;-0.73;79.00
7170;BME280;3626;42.656;23.312;2023-01-31T00:07:12;94072.19;;;-0.74;79.62
7170;BME280;3626;42.656;23.312;2023-01-31T00:07:18;94067.94;;;-0.74;79.62
7170;BME280;3626;42.656;23.312;2023-01-31T00:07:24;94072.06;;;-0.73;79.53
7170;BME280;3626;42.656;23.312;2023-01-31T00:07:30;94078.78;;;-0.72;79.72
7170;BME280;3626;42.656;23.312;2023-01-31T00:07:38;94068.63;;;-0.72;79.75
7170;BME280;3626;42.656;23.312;2023-01-31T00:07:43;94067.00;;;-0.73;79.70
7170;BME280;3626;42.656;23.312;2023-01-31T00:07:49;94073.00;;;-0.74;79.38
7170;BME280;3626;42.656;23.312;2023-01-31T00:07:55;94076.34;;;-0.73;79.67
7170;BME280;3626;42.656;23.312;2023-01-31T00:08:01;94079.78;;;-0.74;80.07
7170;BME280;3626;42.656;23.312;2023-01-31T00:08:07;94075.66;;;-0.76;79.71
7170;BME280;3626;42.656;23.312;2023-01-31T00:08:13;94081.63;;;-0.77;79.66
7170;BME280;3626;42.656;23.312;2023-01-31T00:08:19;94079.19;;;-0.78;79.79
7170;BME280;3626;42.656;23.312;2023-01-31T00:08:26;94085.06;;;-0.78;79.75
7170;BME280;3626;42.656;23.312;2023-01-31T00:08:32;94082.66;;;-0.79;80.08
7170;BME280;3626;42.656;23.312;2023-01-31T00:08:38;94076.00;;;-0.80;79.91
7170;BME280;3626;42.656;23.312;2023-01-31T00:08:46;94071.72;;;-0.80;79.92
7170;BME280;3626;42.656;23.312;2023-01-31T00:08:53;94087.00;;;-0.81;79.95
7170;BME280;3626;42.656;23.312;2023-01-31T00:09:00;94073.44;;;-0.80;79.77
7170;BME280;3626;42.656;23.312;2023-01-31T00:09:08;94072.66;;;-0.81;79.94
7170;BME280;3626;42.656;23.312;2023-01-31T00:09:14;94072.75;;;-0.82;79.93
7170;BME280;3626;42.656;23.312;2023-01-31T00:09:20;94075.50;;;-0.85;80.02
7170;BME280;3626;42.656;23.312;2023-01-31T00:09:26;94083.22;;;-0.87;80.17
7170;BME280;3626;42.656;23.312;2023-01-31T00:09:32;94076.53;;;-0.88;79.84
7170;BME280;3626;42.656;23.312;2023-01-31T00:09:38;94078.94;;;-0.86;80.03
7170;BME280;3626;42.656;23.312;2023-01-31T00:09:44;94088.28;;;-0.87;80.45
7170;BME280;3626;42.656;23.312;2023-01-31T00:09:50;94085.06;;;-0.89;80.29
7170;BME280;3626;42.656;23.312;2023-01-31T00:09:57;94080.00;;;-0.89;80.70
7170;BME280;3626;42.656;23.312;2023-01-31T00:10:04;94085.16;;;-0.90;80.34
7170;BME280;3626;42.656;23.312;2023-01-31T00:10:10;94075.94;;;-0.91;80.56
7170;BME280;3626;42.656;23.312;2023-01-31T00:10:17;94080.22;;;-0.92;80.77
7170;BME280;3626;42.656;23.312;2023-01-31T00:10:23;94082.63;;;-0.90;80.92
7170;BME280;3626;42.656;23.312;2023-01-31T00:10:29;94080.88;;;-0.90;81.02
7170;BME280;3626;42.656;23.312;2023-01-31T00:10:35;94085.16;;;-0.90;80.57
7170;BME280;3626;42.656;23.312;2023-01-31T00:10:41;94081.69;;;-0.89;81.06
7170;BME280;3626;42.656;23.312;2023-01-31T00:10:47;94081.59;;;-0.88;80.84
7170;BME280;3626;42.656;23.312;2023-01-31T00:10:53;94079.88;;;-0.87;81.05
7170;BME280;3626;42.656;23.312;2023-01-31T00:10:59;94088.28;;;-0.87;80.45
7170;BME280;3626;42.656;23.312;2023-01-31T00:11:04;94080.81;;;-0.88;80.82
7170;BME280;3626;42.656;23.312;2023-01-31T00:11:11;94069.88;;;-0.89;80.79
7170;BME280;3626;42.656;23.312;2023-01-31T00:11:19;94077.47;;;-0.89;81.11
7170;BME280;3626;42.656;23.312;2023-01-31T00:11:27;94076.06;;;-0.93;81.07
7170;BME280;3626;42.656;23.312;2023-01-31T00:11:34;94076.97;;;-0.94;81.17
7170;BME280;3626;42.656;23.312;2023-01-31T00:11:40;94081.13;;;-0.93;81.04
7170;BME280;3626;42.656;23.312;2023-01-31T00:11:46;94073.53;;;-0.93;81.00
7170;BME280;3626;42.656;23.312;2023-01-31T00:11:54;94082.94;;;-0.95;81.11
7170;BME280;3626;42.656;23.312;2023-01-31T00:12:00;94079.63;;;-0.95;81.28
7170;BME280;3626;42.656;23.312;2023-01-31T00:12:06;94077.88;;;-0.95;81.64
7170;BME280;3626;42.656;23.312;2023-01-31T00:12:11;94082.88;;;-0.93;81.34
7170;BME280;3626;42.656;23.312;2023-01-31T00:12:17;94077.09;;;-0.95;81.37
7170;BME280;3626;42.656;23.312;2023-01-31T00:12:23;94084.69;;;-0.95;81.43
7170;BME280;3626;42.656;23.312;2023-01-31T00:12:29;94078.09;;;-0.98;81.75
7170;BME280;3626;42.656;23.312;2023-01-31T00:12:35;94080.75;;;-0.99;81.57
7170;BME280;3626;42.656;23.312;2023-01-31T00:12:41;94079.16;;;-1.01;81.75
7170;BME280;3626;42.656;23.312;2023-01-31T00:12:47;94074.88;;;-1.00;81.92
7170;BME280;3626;42.656;23.312;2023-01-31T00:12:52;94079.94;;;-1.00;81.55
7170;BME280;3626;42.656;23.312;2023-01-31T00:12:58;94078.22;;;-0.99;82.05
7170;BME280;3626;42.656;23.312;2023-01-31T00:13:04;94075.56;;;-0.98;81.78
7170;BME280;3626;42.656;23.312;2023-01-31T00:13:11;94081.34;;;-0.96;81.73
7170;BME280;3626;42.656;23.312;2023-01-31T00:13:19;94075.47;;;-0.96;82.14
7170;BME280;3626;42.656;23.312;2023-01-31T00:13:26;94078.69;;;-0.94;82.35
7170;BME280;3626;42.656;23.312;2023-01-31T00:13:32;94077.88;;;-0.95;82.42
7170;BME280;3626;42.656;23.312;2023-01-31T00:13:38;94075.25;;;-0.93;82.23
7170;BME280;3626;42.656;23.312;2023-01-31T00:13:45;94075.25;;;-0.93;82.13
7170;BME280;3626;42.656;23.312;2023-01-31T00:13:52;94077.28;;;-0.98;82.33
7170;BME280;3626;42.656;23.312;2023-01-31T00:13:58;94077.53;;;-1.02;82.33
7170;BME280;3626;42.656;23.312;2023-01-31T00:14:05;94079.47;;;-1.05;82.43
7170;BME280;3626;42.656;23.312;2023-01-31T00:14:17;94074.75;;;-1.10;82.97
7170;BME280;3626;42.656;23.312;2023-01-31T00:14:23;94072.31;;;-1.11;82.95
7170;BME280;3626;42.656;23.312;2023-01-31T00:14:30;94072.53;;;-1.14;82.99
7170;BME280;3626;42.656;23.312;2023-01-31T00:14:36;94070.09;;;-1.16;82.83
7170;BME280;3626;42.656;23.312;2023-01-31T00:14:42;94071.94;;;-1.18;82.98
7170;BME280;3626;42.656;23.312;2023-01-31T00:14:48;94076.22;;;-1.18;83.29
7170;BME280;3626;42.656;23.312;2023-01-31T00:14:53;94066.28;;;-1.21;83.44
7170;BME280;3626;42.656;23.312;2023-01-31T00:14:59;94072.38;;;-1.24;83.63
7170;BME280;3626;42.656;23.312;2023-01-31T00:15:06;94072.59;;;-1.27;83.50
7170;BME280;3626;42.656;23.312;2023-01-31T00:15:12;94073.41;;;-1.27;83.33
7170;BME280;3626;42.656;23.312;2023-01-31T00:15:20;94069.22;;;-1.28;83.61
7170;BME280;3626;42.656;23.312;2023-01-31T00:15:26;94074.22;;;-1.26;83.36
7170;BME280;3626;42.656;23.312;2023-01-31T00:15:32;94073.41;;;-1.27;83.64
7170;BME280;3626;42.656;23.312;2023-01-31T00:15:41;94069.34;;;-1.29;83.49
7170;BME280;3626;42.656;23.312;2023-01-31T00:15:48;94065.22;;;-1.30;83.61
7170;BME280;3626;42.656;23.312;2023-01-31T00:15:55;94067.03;;;-1.32;84.33
7170;BME280;3626;42.656;23.312;2023-01-31T00:16:01;94070.50;;;-1.33;84.21
7170;BME280;3626;42.656;23.312;2023-01-31T00:16:09;94067.16;;;-1.34;84.08
7170;BME280;3626;42.656;23.312;2023-01-31T00:16:15;94064.75;;;-1.35;84.69
7170;BME280;3626;42.656;23.312;2023-01-31T00:16:22;94074.06;;;-1.36;84.60
7170;BME280;3626;42.656;23.312;2023-01-31T00:16:28;94070.69;;;-1.36;84.75
7170;BME280;3626;42.656;23.312;2023-01-31T00:16:35;94067.16;;;-1.34;85.01
7170;BME280;3626;42.656;23.312;2023-01-31T00:16:41;94077.28;;;-1.34;84.68
7170;BME280;3626;42.656;23.312;2023-01-31T00:16:47;94071.41;;;-1.34;84.60
7170;BME280;3626;42.656;23.312;2023-01-31T00:16:53;94064.75;;;-1.35;84.52
7170;BME280;3626;42.656;23.312;2023-01-31T00:16:59;94067.34;;;-1.37;84.21
7170;BME280;3626;42.656;23.312;2023-01-31T00:17:05;94064.81;;;-1.37;84.72
7170;BME280;3626;42.656;23.312;2023-01-31T00:17:11;94069.81;;;-1.35;84.41
7170;BME280;3626;42.656;23.312;2023-01-31T00:17:17;94073.13;;;-1.35;84.52
7170;BME280;3626;42.656;23.312;2023-01-31T00:17:24;94058.75;;;-1.34;84.59
7170;BME280;3626;42.656;23.312;2023-01-31T00:17:31;94063.69;;;-1.33;84.62
7170;BME280;3626;42.656;23.312;2023-01-31T00:17:37;94058.63;;;-1.33;84.48
7170;BME280;3626;42.656;23.312;2023-01-31T00:17:44;94062.81;;;-1.32;84.62
7170;BME280;3626;42.656;23.312;2023-01-31T00:17:49;94063.69;;;-1.33;84.79
7170;BME280;3626;42.656;23.312;2023-01-31T00:17:55;94057.84;;;-1.33;84.70
7170;BME280;3626;42.656;23.312;2023-01-31T00:18:01;94053.56;;;-1.33;84.70
7170;BME280;3626;42.656;23.312;2023-01-31T00:18:07;94068.66;;;-1.31;84.76
7170;BME280;3626;42.656;23.312;2023-01-31T00:18:13;94059.34;;;-1.31;85.15
7170;BME280;3626;42.656;23.312;2023-01-31T00:18:19;94059.22;;;-1.29;85.18
7170;BME280;3626;42.656;23.312;2023-01-31T00:18:25;94061.66;;;-1.28;84.96
7170;BME280;3626;42.656;23.312;2023-01-31T00:18:31;94061.66;;;-1.28;84.92
7170;BME280;3626;42.656;23.312;2023-01-31T00:18:40;94059.13;;;-1.28;84.80
7170;BME280;3626;42.656;23.312;2023-01-31T00:18:47;94061.75;;;-1.29;85.56
7170;BME280;3626;42.656;23.312;2023-01-31T00:18:53;94060.97;;;-1.30;85.78
7170;BME280;3626;42.656;23.312;2023-01-31T00:18:59;94061.97;;;-1.32;85.84
7170;BME280;3626;42.656;23.312;2023-01-31T00:19:07;94058.63;;;-1.33;85.56
7170;BME280;3626;42.656;23.312;2023-01-31T00:19:12;94062.91;;;-1.33;85.69
7170;BME280;3626;42.656;23.312;2023-01-31T00:19:18;94058.88;;;-1.36;85.57
7170;BME280;3626;42.656;23.312;2023-01-31T00:19:24;94061.50;;;-1.37;85.68
7170;BME280;3626;42.656;23.312;2023-01-31T00:19:30;94059.09;;;-1.39;86.07
7170;BME280;3626;42.656;23.312;2023-01-31T00:19:36;94059.88;;;-1.38;85.77
7170;BME280;3626;42.656;23.312;2023-01-31T00:19:42;94064.81;;;-1.37;85.80
7170;BME280;3626;42.656;23.312;2023-01-31T00:19:48;94055.75;;;-1.39;86.17
7170;BME280;3626;42.656;23.312;2023-01-31T00:19:56;94060.09;;;-1.41;86.25
7170;BME280;3626;42.656;23.312;2023-01-31T00:20:03;94066.06;;;-1.42;86.47
7170;BME280;3626;42.656;23.312;2023-01-31T00:20:10;94054.44;;;-1.45;86.40
7170;BME280;3626;42.656;23.312;2023-01-31T00:20:16;94063.66;;;-1.44;86.38
7170;BME280;3626;42.656;23.312;2023-01-31T00:20:23;94068.81;;;-1.45;86.40
7170;BME280;3626;42.656;23.312;2023-01-31T00:20:29;94058.69;;;-1.45;86.63
7170;BME280;3626;42.656;23.312;2023-01-31T00:20:35;94061.22;;;-1.45;86.75
7170;BME280;3626;42.656;23.312;2023-01-31T00:20:41;94062.88;;;-1.44;86.71
7170;BME280;3626;42.656;23.312;2023-01-31T00:20:47;94056.88;;;-1.43;86.94
7170;BME280;3626;42.656;23.312;2023-01-31T00:20:53;94057.69;;;-1.43;86.70
7170;BME280;3626;42.656;23.312;2023-01-31T00:21:05;94059.09;;;-1.39;86.63
7170;BME280;3626;42.656;23.312;2023-01-31T00:21:13;94060.91;;;-1.41;86.81
7170;BME280;3626;42.656;23.312;2023-01-31T00:21:23;94058.47;;;-1.42;86.56
7170;BME280;3626;42.656;23.312;2023-01-31T00:21:30;94058.47;;;-1.42;86.63
7170;BME280;3626;42.656;23.312;2023-01-31T00:21:36;94064.47;;;-1.43;86.81
7170;BME280;3626;42.656;23.312;2023-01-31T00:21:42;94064.47;;;-1.43;86.66
7170;BME280;3626;42.656;23.312;2023-01-31T00:21:49;94059.28;;;-1.42;87.11
7170;BME280;3626;42.656;23.312;2023-01-31T00:21:57;94064.34;;;-1.42;86.95
7170;BME280;3626;42.656;23.312;2023-01-31T00:22:03;94061.94;;;-1.43;86.78
7170;BME280;3626;42.656;23.312;2023-01-31T00:22:09;94064.34;;;-1.42;86.86
7170;BME280;3626;42.656;23.312;2023-01-31T00:22:15;94066.75;;;-1.40;86.91
7170;BME280;3626;42.656;23.312;2023-01-31T00:22:21;94058.38;;;-1.41;86.93
7170;BME280;3626;42.656;23.312;2023-01-31T00:22:27;94057.47;;;-1.40;86.87
7170;BME280;3626;42.656;23.312;2023-01-31T00:22:33;94066.75;;;-1.40;86.94
7170;BME280;3626;42.656;23.312;2023-01-31T00:22:39;94058.38;;;-1.41;86.80
7170;BME280;3626;42.656;23.312;2023-01-31T00:22:45;94061.94;;;-1.43;86.88
7170;BME280;3626;42.656;23.312;2023-01-31T00:22:52;94067.91;;;-1.44;86.71
7170;BME280;3626;42.656;23.312;2023-01-31T00:22:58;94066.28;;;-1.45;86.90
7170;BME280;3626;42.656;23.312;2023-01-31T00:23:05;94067.22;;;-1.46;87.01
7170;BME280;3626;42.656;23.312;2023-01-31T00:23:11;94068.13;;;-1.47;86.75
7170;BME280;3626;42.656;23.312;2023-01-31T00:23:17;94064.00;;;-1.48;86.89
7170;BME280;3626;42.656;23.312;2023-01-31T00:23:23;94069.06;;;-1.48;86.98
7170;BME280;3626;42.656;23.312;2023-01-31T00:23:29;94062.34;;;-1.49;86.93
7170;BME280;3626;42.656;23.312;2023-01-31T00:23:35;94066.53;;;-1.48;86.75
7170;BME280;3626;42.656;23.312;2023-01-31T00:23:42;94064.06;;;-1.50;86.60
7170;BME280;3626;42.656;23.312;2023-01-31T00:23:49;94059.81;;;-1.49;86.76
7170;BME280;3626;42.656;23.312;2023-01-31T00:23:57;94075.72;;;-1.47;86.73
7170;BME280;3626;42.656;23.312;2023-01-31T00:24:03;94073.19;;;-1.47;86.83
7170;BME280;3626;42.656;23.312;2023-01-31T00:24:11;94068.13;;;-1.47;86.91
7170;BME280;3626;42.656;23.312;2023-01-31T00:24:17;94068.81;;;-1.45;86.72
7170;BME280;3626;42.656;23.312;2023-01-31T00:24:23;94071.13;;;-1.42;86.54
7170;BME280;3626;42.656;23.312;2023-01-31T00:24:28;94071.13;;;-1.42;86.73
7170;BME280;3626;42.656;23.312;2023-01-31T00:24:34;94066.75;;;-1.40;86.84
7170;BME280;3626;42.656;23.312;2023-01-31T00:24:40;94061.63;;;-1.39;86.58
7170;BME280;3626;42.656;23.312;2023-01-31T00:24:46;94071.63;;;-1.37;86.57
7170;BME280;3626;42.656;23.312;2023-01-31T00:24:52;94061.41;;;-1.36;86.73
7170;BME280;3626;42.656;23.312;2023-01-31T00:24:58;94061.41;;;-1.36;86.43
7170;BME280;3626;42.656;23.312;2023-01-31T00:25:05;94059.69;;;-1.35;86.13
7170;BME280;3626;42.656;23.312;2023-01-31T00:25:10;94063.94;;;-1.36;86.50
7170;BME280;3626;42.656;23.312;2023-01-31T00:25:17;94065.53;;;-1.35;86.24
7170;BME280;3626;42.656;23.312;2023-01-31T00:25:22;94059.56;;;-1.34;86.12
7170;BME280;3626;42.656;23.312;2023-01-31T00:25:28;94067.16;;;-1.34;86.53
7170;BME280;3626;42.656;23.312;2023-01-31T00:25:35;94061.28;;;-1.34;86.21
7170;BME280;3626;42.656;23.312;2023-01-31T00:25:41;94067.03;;;-1.32;85.92
7170;BME280;3626;42.656;23.312;2023-01-31T00:25:47;94060.38;;;-1.33;86.10
7170;BME280;3626;42.656;23.312;2023-01-31T00:25:53;94064.63;;;-1.34;85.95
7170;BME280;3626;42.656;23.312;2023-01-31T00:26:07;94062.22;;;-1.35;86.26
7170;BME280;3626;42.656;23.312;2023-01-31T00:26:16;94058.03;;;-1.36;86.04
7170;BME280;3626;42.656;23.312;2023-01-31T00:26:23;94061.50;;;-1.37;85.69
7170;BME280;3626;42.656;23.312;2023-01-31T00:26:32;94065.63;;;-1.36;86.01
7170;BME280;3626;42.656;23.312;2023-01-31T00:26:38;94059.69;;;-1.35;85.75
7170;BME280;3626;42.656;23.312;2023-01-31T00:26:44;94061.28;;;-1.34;85.78
7170;BME280;3626;42.656;23.312;2023-01-31T00:26:50;94062.91;;;-1.33;85.99
7170;BME280;3626;42.656;23.312;2023-01-31T00:27:01;94056.81;;;-1.31;85.77
7170;BME280;3626;42.656;23.312;2023-01-31T00:27:08;94061.97;;;-1.32;85.82
7170;BME280;3626;42.656;23.312;2023-01-31T00:27:14;94057.75;;;-1.32;85.82
7170;BME280;3626;42.656;23.312;2023-01-31T00:27:19;94057.63;;;-1.30;85.92
7170;BME280;3626;42.656;23.312;2023-01-31T00:27:27;94062.69;;;-1.30;85.83
7170;BME280;3626;42.656;23.312;2023-01-31T00:27:33;94060.03;;;-1.29;85.99
7170;BME280;3626;42.656;23.312;2023-01-31T00:27:39;94060.84;;;-1.28;85.87
7170;BME280;3626;42.656;23.312;2023-01-31T00:27:44;94061.66;;;-1.28;86.04
7170;BME280;3626;42.656;23.312;2023-01-31T00:27:50;94059.22;;;-1.29;85.93
7170;BME280;3626;42.656;23.312;2023-01-31T00:27:57;94058.44;;;-1.30;85.93
7170;BME280;3626;42.656;23.312;2023-01-31T00:28:03;94060.84;;;-1.28;85.86
7170;BME280;3626;42.656;23.312;2023-01-31T00:28:09;94063.38;;;-1.28;85.84
7170;BME280;3626;42.656;23.312;2023-01-31T00:28:15;94060.84;;;-1.28;85.92
7170;BME280;3626;42.656;23.312;2023-01-31T00:28:21;94054.88;;;-1.27;85.87
7170;BME280;3626;42.656;23.312;2023-01-31T00:28:32;94056.50;;;-1.26;85.72
7170;BME280;3626;42.656;23.312;2023-01-31T00:28:38;94062.34;;;-1.26;85.98
7170;BME280;3626;42.656;23.312;2023-01-31T00:28:45;94058.81;;;-1.23;86.05
7170;BME280;3626;42.656;23.312;2023-01-31T00:28:53;94061.22;;;-1.21;85.81
7170;BME280;3626;42.656;23.312;2023-01-31T00:29:01;94062.03;;;-1.21;85.55
7170;BME280;3626;42.656;23.312;2023-01-31T00:29:07;94056.03;;;-1.20;85.49
7170;BME280;3626;42.656;23.312;2023-01-31T00:29:13;94059.28;;;-1.18;85.45
7170;BME280;3626;42.656;23.312;2023-01-31T00:29:19;94057.69;;;-1.19;85.83
7170;BME280;3626;42.656;23.312;2023-01-31T00:29:25;94058.56;;;-1.20;85.64
7170;BME280;3626;42.656;23.312;2023-01-31T00:29:31;94061.91;;;-1.19;85.61
7170;BME280;3626;42.656;23.312;2023-01-31T00:29:37;94062.75;;;-1.19;85.64
7170;BME280;3626;42.656;23.312;2023-01-31T00:29:43;94063.75;;;-1.21;85.52
7170;BME280;3626;42.656;23.312;2023-01-31T00:29:49;94059.94;;;-1.27;85.63
7170;BME280;3626;42.656;23.312;2023-01-31T00:29:55;94060.84;;;-1.28;85.28
7170;BME280;3626;42.656;23.312;2023-01-31T00:30:03;94060.03;;;-1.29;85.49
7170;BME280;3626;42.656;23.312;2023-01-31T00:30:12;94060.84;;;-1.28;85.67
7170;BME280;3626;42.656;23.312;2023-01-31T00:30:18;94065.91;;;-1.28;85.62
7170;BME280;3626;42.656;23.312;2023-01-31T00:30:24;94064.09;;;-1.26;85.40
7170;BME280;3626;42.656;23.312;2023-01-31T00:30:30;94063.16;;;-1.25;85.67
7170;BME280;3626;42.656;23.312;2023-01-31T00:30:36;94063.16;;;-1.25;85.63
7170;BME280;3626;42.656;23.312;2023-01-31T00:30:42;94067.22;;;-1.22;85.60
7170;BME280;3626;42.656;23.312;2023-01-31T00:30:48;94060.41;;;-1.22;85.65
7170;BME280;3626;42.656;23.312;2023-01-31T00:30:57;94064.44;;;-1.19;85.79
7170;BME280;3626;42.656;23.312;2023-01-31T00:31:03;94062.75;;;-1.19;85.60
7170;BME280;3626;42.656;23.312;2023-01-31T00:31:10;94065.03;;;-1.16;85.51
7170;BME280;3626;42.656;23.312;2023-01-31T00:31:17;94065.03;;;-1.16;85.25
7170;BME280;3626;42.656;23.312;2023-01-31T00:31:25;94065.03;;;-1.16;85.34
7170;BME280;3626;42.656;23.312;2023-01-31T00:31:33;94071.72;;;-1.15;85.21
7170;BME280;3626;42.656;23.312;2023-01-31T00:31:42;94065.97;;;-1.17;85.51
7170;BME280;3626;42.656;23.312;2023-01-31T00:31:48;94061.81;;;-1.18;85.36
7170;BME280;3626;42.656;23.312;2023-01-31T00:31:53;94064.34;;;-1.18;85.17
7170;BME280;3626;42.656;23.312;2023-01-31T00:31:59;94064.56;;;-1.21;84.86
7170;BME280;3626;42.656;23.312;2023-01-31T00:32:05;94063.63;;;-1.20;85.12
7170;BME280;3626;42.656;23.312;2023-01-31T00:32:11;94057.78;;;-1.20;85.66
7170;BME280;3626;42.656;23.312;2023-01-31T00:32:17;94075.41;;;-1.19;85.40
7170;BME280;3626;42.656;23.312;2023-01-31T00:32:23;94066.97;;;-1.19;85.51
7170;BME280;3626;42.656;23.312;2023-01-31T00:32:31;94068.69;;;-1.20;85.33
7170;BME280;3626;42.656;23.312;2023-01-31T00:32:37;94067.22;;;-1.22;85.24
7170;BME280;3626;42.656;23.312;2023-01-31T00:32:42;94068.00;;;-1.22;85.44
7170;BME280;3626;42.656;23.312;2023-01-31T00:32:48;94065.47;;;-1.22;85.31
7170;BME280;3626;42.656;23.312;2023-01-31T00:32:54;94068.81;;;-1.21;85.45
7170;BME280;3626;42.656;23.312;2023-01-31T00:33:00;94071.34;;;-1.21;85.52
7170;BME280;3626;42.656;23.312;2023-01-31T00:33:06;94065.38;;;-1.20;85.01
7170;BME280;3626;42.656;23.312;2023-01-31T00:33:12;94065.38;;;-1.20;85.06
7170;BME280;3626;42.656;23.312;2023-01-31T00:33:19;94067.81;;;-1.19;85.12
7170;BME280;3626;42.656;23.312;2023-01-31T00:33:25;94071.16;;;-1.18;85.46
7170;BME280;3626;42.656;23.312;2023-01-31T00:33:31;94063.63;;;-1.20;85.19
7170;BME280;3626;42.656;23.312;2023-01-31T00:33:39;94068.69;;;-1.20;85.61
7170;BME280;3626;42.656;23.312;2023-01-31T00:33:46;94068.69;;;-1.20;85.37
7170;BME280;3626;42.656;23.312;2023-01-31T00:33:53;94066.06;;;-1.18;85.22
7170;BME280;3626;42.656;23.312;2023-01-31T00:34:00;94069.41;;;-1.18;84.95
7170;BME280;3626;42.656;23.312;2023-01-31T00:34:06;94063.53;;;-1.18;85.06
7170;BME280;3626;42.656;23.312;2023-01-31T00:34:12;94065.16;;;-1.17;84.90
7170;BME280;3626;42.656;23.312;2023-01-31T00:34:18;94065.16;;;-1.17;85.05
7170;BME280;3626;42.656;23.312;2023-01-31T00:34:24;94068.50;;;-1.17;85.30
7170;BME280;3626;42.656;23.312;2023-01-31T00:34:30;94062.63;;;-1.17;85.09
7170;BME280;3626;42.656;23.312;2023-01-31T00:34:36;94063.53;;;-1.18;85.33
7170;BME280;3626;42.656;23.312;2023-01-31T00:34:41;94064.22;;;-1.16;84.84
7170;BME280;3626;42.656;23.312;2023-01-31T00:34:48;94064.34;;;-1.18;85.12
7170;BME280;3626;42.656;23.312;2023-01-31T00:34:54;94072.63;;;-1.16;84.93
7170;BME280;3626;42.656;23.312;2023-01-31T00:35:00;94070.09;;;-1.16;85.16
7170;BME280;3626;42.656;23.312;2023-01-31T00:35:07;94070.00;;;-1.14;85.05
7170;BME280;3626;42.656;23.312;2023-01-31T00:35:13;94068.50;;;-1.17;85.01
7170;BME280;3626;42.656;23.312;2023-01-31T00:35:19;94071.22;;;-1.20;85.01